الصفحة الرئيسية
METAR-TAF:

METAR-TAF

مطار :

ماريبور, سلوفينيا

دائرة عرض: 46-29N, خط طول: 015-41E, ارتفاع: 264 متر

مراقبة الطقس الحالي

تاريخ ووقت الإصدار 40 دقيقة قبل الساعة 20:00UTC
ريح 8 عقدة من الشمال/الشمال الغربي
درجة الحرارة 14°درجة مئوية
الرطوبة 63%
ضغط 1022 hPa
الرؤية 10 كم أو أكثر
الغيوم لا تقل 1500 م ولا وجود لمزنة ركامية السحاب الأسود

METAR: LJMB 292000Z 34008KT CAVOK 14/07 Q1022

زمن: 22:40 (20:40 UTC)

توقعات

تاريخ ووقت الإصدار 3ساعات و 40 دقيقة قبل الساعة 17:00UTC
التوقعات صالحة من29 الساعة 18 UTC إلى 30 الساعة 18 UTC
ريح 7 عقدة من الشمال
الرؤية 10 كم أو أكثر
غيوم قليلة على ارتفاع 5000 قدم
نظرية الاحتمالات 30% :
مؤقت
من 29 الساعة 18 UTC إلى 29 الساعة 20 UTC
غيوم مفككة على ارتفاع 4500 قدم, مزن ركامية عمودية.
زخات من المطر
نظرية الاحتمالات 40% :
مؤقت
من 30 الساعة 10 UTC إلى 30 الساعة 12 UTC
غيوم مفككة على ارتفاع 5000 قدم, مزن ركامية عمودية.
زخات من المطر

TAF: LJMB 291700Z 2918/3018 35007KT 9999 FEW050 PROB30 TEMPO 2918/2920 SHRA BKN045TCU PROB40 TEMPO 3010/3012 SHRA BKN050TCU

أرصاد الطقس والتوقعات من أكثر من 4000 مطار (تقارير الطقس للمطار METAR والتنبؤ بالطقس بالمطارTAF).

المحطات المتاحة هي النقط الصفراء والحمراء على الخريطة.

حرك المؤشر فوق النقطة لمعرفة اسم المحطة.

ثم انقر لمعرفة أرصاد وتوقعات الطقس.

لتغيير الخارطة: اضغط على الأزرار الخضراء مع رمز الصليب الأسود للتكبير. على الزر الأخضر مع شرطة للتصغير، أو على الأسهم الخضراء للخرائط المجاورة.


METAR-TAF: